createdAt,value
2022-09-10T00:02:01.941Z,8.30
2022-09-10T00:04:28.606Z,7.07
2022-09-10T00:06:55.707Z,8.20
2022-09-10T00:09:23.070Z,7.68
2022-09-10T00:11:49.944Z,7.32
2022-09-10T00:14:20.529Z,7.90
2022-09-10T00:16:47.921Z,7.57
2022-09-10T00:19:15.519Z,8.00
2022-09-10T00:21:44.367Z,8.40
2022-09-10T00:24:10.876Z,7.82
2022-09-10T00:26:39.583Z,7.75
2022-09-10T00:29:09.113Z,8.43
2022-09-10T00:31:36.070Z,8.55
2022-09-10T00:34:05.691Z,8.18
2022-09-10T00:36:36.030Z,8.30
2022-09-10T00:39:06.233Z,8.48
2022-09-10T00:41:34.207Z,8.90
2022-09-10T00:44:03.705Z,8.57
2022-09-10T00:46:33.492Z,8.10
2022-09-10T00:49:03.725Z,8.13
2022-09-10T00:51:35.199Z,8.32
2022-09-10T00:54:03.979Z,8.48
2022-09-10T00:56:32.757Z,8.32
2022-09-10T00:59:00.221Z,8.25
2022-09-10T01:01:26.780Z,8.45
2022-09-10T01:03:54.844Z,7.97
2022-09-10T01:06:21.421Z,8.35
2022-09-10T01:08:47.923Z,8.57
2022-09-10T01:11:23.122Z,8.32
2022-09-10T01:14:01.745Z,8.40
2022-09-10T01:17:18.488Z,8.40
2022-09-10T01:20:03.838Z,8.35
2022-09-10T01:22:50.936Z,8.43
2022-09-10T01:25:55.373Z,9.05
2022-09-10T01:28:39.488Z,7.90
2022-09-10T01:31:45.392Z,8.02
2022-09-10T01:34:42.044Z,8.35
2022-09-10T01:37:14.451Z,7.93
2022-09-10T01:39:42.286Z,8.18
2022-09-10T01:42:08.865Z,8.10
2022-09-10T01:44:50.123Z,8.00
2022-09-10T01:47:35.342Z,8.75
2022-09-10T01:50:04.508Z,8.38
2022-09-10T01:52:49.619Z,8.95
2022-09-10T01:55:37.617Z,7.75
2022-09-10T01:58:22.164Z,7.20
2022-09-10T02:01:25.101Z,7.75
2022-09-10T02:03:56.963Z,7.35
2022-09-10T02:06:28.205Z,6.70
2022-09-10T02:08:56.888Z,6.75
2022-09-10T02:11:23.447Z,6.93
2022-09-10T02:13:50.440Z,7.10
2022-09-10T02:16:26.949Z,6.55
2022-09-10T02:18:53.675Z,7.10
2022-09-10T02:21:20.221Z,6.72
2022-09-10T02:23:52.365Z,7.47
2022-09-10T02:26:18.953Z,6.70
2022-09-10T02:28:45.799Z,6.97
2022-09-10T02:31:12.916Z,7.00
2022-09-10T02:33:39.517Z,7.65
2022-09-10T02:36:06.567Z,7.25
2022-09-10T02:38:33.404Z,7.18
2022-09-10T02:41:00.171Z,7.28
2022-09-10T02:43:27.957Z,7.05
2022-09-10T02:45:58.074Z,6.65
2022-09-10T02:48:26.674Z,7.15
2022-09-10T02:50:54.459Z,7.63
2022-09-10T02:53:21.317Z,7.50
2022-09-10T02:55:48.619Z,7.30
2022-09-10T02:58:16.437Z,7.75
2022-09-10T03:00:44.430Z,7.60
2022-09-10T03:03:11.251Z,7.53
2022-09-10T03:05:38.668Z,8.15
2022-09-10T03:08:06.232Z,8.02
2022-09-10T03:10:33.187Z,7.65
2022-09-10T03:13:00.422Z,7.95
2022-09-10T03:15:27.789Z,8.50
2022-09-10T03:17:54.725Z,7.82
2022-09-10T03:20:23.110Z,8.65
2022-09-10T03:22:51.520Z,8.18
2022-09-10T03:25:22.755Z,8.15
2022-09-10T03:27:49.356Z,8.48
2022-09-10T03:30:15.982Z,9.05
2022-09-10T03:32:42.482Z,9.52
2022-09-10T03:35:10.152Z,9.50
2022-09-10T03:37:36.714Z,8.57
2022-09-10T03:40:03.939Z,9.90
2022-09-10T03:42:30.454Z,9.77
2022-09-10T03:44:56.963Z,10.07
2022-09-10T03:47:24.035Z,9.38
2022-09-10T03:49:50.847Z,9.02
2022-09-10T03:52:17.949Z,9.77
2022-09-10T03:54:45.624Z,10.75
2022-09-10T03:57:12.284Z,10.02
2022-09-10T03:59:41.235Z,11.18
2022-09-10T04:02:09.401Z,11.23
2022-09-10T04:04:37.418Z,10.18
2022-09-10T04:07:04.565Z,9.50
2022-09-10T04:09:32.569Z,10.82
2022-09-10T04:11:59.896Z,12.00
2022-09-10T04:14:27.127Z,11.80
2022-09-10T04:16:53.674Z,12.60
2022-09-10T04:19:20.321Z,12.77
2022-09-10T04:21:46.843Z,13.70
2022-09-10T04:24:13.441Z,12.70
2022-09-10T04:26:40.153Z,12.35
2022-09-10T04:29:06.899Z,12.48
2022-09-10T04:31:33.459Z,12.73
2022-09-10T04:34:01.450Z,11.30
2022-09-10T04:36:28.599Z,11.65
2022-09-10T04:38:55.065Z,11.95
2022-09-10T04:41:21.902Z,11.60
2022-09-10T04:43:48.493Z,11.68
2022-09-10T04:46:15.249Z,11.43
2022-09-10T04:48:41.804Z,11.55
2022-09-10T04:51:17.565Z,10.95
2022-09-10T04:53:45.614Z,10.57
2022-09-10T04:56:12.394Z,11.20
2022-09-10T04:58:39.457Z,11.05
2022-09-10T05:01:06.863Z,11.13
2022-09-10T05:03:33.711Z,11.02
2022-09-10T05:06:00.249Z,11.60
2022-09-10T05:08:26.834Z,11.82
2022-09-10T05:10:53.441Z,11.73
2022-09-10T05:13:19.981Z,12.18
2022-09-10T05:15:46.571Z,11.82
2022-09-10T05:18:13.206Z,12.85
2022-09-10T05:20:39.784Z,13.68
2022-09-10T05:23:06.375Z,13.95
2022-09-10T05:25:34.605Z,14.02
2022-09-10T05:28:01.665Z,14.15
2022-09-10T05:30:32.800Z,13.98
2022-09-10T05:33:02.856Z,14.50
2022-09-10T05:35:30.372Z,13.57
2022-09-10T05:37:57.773Z,13.52
2022-09-10T05:40:25.544Z,14.52
2022-09-10T05:42:52.151Z,13.75
2022-09-10T05:45:20.382Z,14.07
2022-09-10T05:47:47.658Z,14.02
2022-09-10T05:50:14.635Z,14.30
2022-09-10T05:52:41.193Z,13.00
2022-09-10T05:55:08.191Z,13.40
2022-09-10T05:57:35.549Z,13.10
2022-09-10T06:00:05.785Z,12.32
2022-09-10T06:02:33.555Z,11.68
2022-09-10T06:05:00.682Z,10.63
2022-09-10T06:07:29.592Z,10.80
2022-09-10T06:09:57.668Z,10.25
2022-09-10T06:12:24.524Z,8.95
2022-09-10T06:14:51.018Z,8.68
2022-09-10T06:17:17.833Z,8.38
2022-09-10T06:19:45.125Z,8.15
2022-09-10T06:22:12.875Z,8.68
2022-09-10T06:24:39.409Z,7.47
2022-09-10T06:27:06.469Z,7.53
2022-09-10T06:29:33.322Z,6.13
2022-09-10T06:32:00.529Z,5.90
2022-09-10T06:34:27.076Z,5.45
2022-09-10T06:36:53.623Z,5.63
2022-09-10T06:39:20.118Z,5.15
2022-09-10T06:41:49.722Z,5.80
2022-09-10T06:44:16.534Z,5.72
2022-09-10T06:49:31.424Z,5.35
2022-09-10T06:51:58.036Z,5.68
2022-09-10T06:54:26.469Z,5.93
2022-09-10T06:56:53.118Z,6.20
2022-09-10T06:59:19.652Z,5.32
2022-09-10T07:01:47.569Z,5.85
2022-09-10T07:04:14.191Z,5.95
2022-09-10T07:06:40.710Z,5.55
2022-09-10T07:09:07.403Z,5.80
2022-09-10T07:11:39.220Z,5.75
2022-09-10T07:14:12.335Z,6.55
2022-09-10T07:16:41.614Z,6.70
2022-09-10T07:19:08.200Z,6.05
2022-09-10T07:21:37.914Z,6.32
2022-09-10T07:24:05.834Z,5.85
2022-09-10T07:26:32.600Z,6.57
2022-09-10T07:28:59.171Z,6.95
2022-09-10T07:31:28.141Z,6.45
2022-09-10T07:33:55.456Z,6.50
2022-09-10T07:36:22.140Z,6.40
2022-09-10T07:38:52.741Z,7.05
2022-09-10T07:41:19.641Z,7.13
2022-09-10T07:43:46.490Z,7.35
2022-09-10T07:46:20.585Z,7.45
2022-09-10T07:48:51.385Z,6.80
2022-09-10T07:51:19.229Z,6.93
2022-09-10T07:53:50.439Z,8.20
2022-09-10T07:56:17.214Z,7.25
2022-09-10T07:58:43.871Z,8.23
2022-09-10T08:01:12.581Z,7.60
2022-09-10T08:03:40.088Z,6.90
2022-09-10T08:06:08.426Z,6.43
2022-09-10T08:08:38.400Z,6.65
2022-09-10T08:11:12.250Z,6.55
2022-09-10T08:13:45.527Z,5.60
2022-09-10T08:16:15.395Z,5.28
2022-09-10T08:18:43.660Z,6.13
2022-09-10T08:21:10.911Z,5.00
2022-09-10T08:23:41.362Z,5.18
2022-09-10T08:26:08.933Z,4.95
2022-09-10T08:28:36.878Z,4.90
2022-09-10T08:31:09.079Z,5.00
2022-09-10T08:33:36.958Z,5.50
2022-09-10T08:36:05.742Z,4.82
2022-09-10T08:38:37.352Z,5.00
2022-09-10T08:41:19.034Z,4.85
2022-09-10T08:43:51.821Z,4.43
2022-09-10T08:46:25.030Z,4.72
2022-09-10T08:49:02.186Z,4.43
2022-09-10T08:51:33.967Z,4.80
2022-09-10T08:54:12.403Z,5.00
2022-09-10T08:56:41.502Z,5.28
2022-09-10T08:59:20.303Z,4.28
2022-09-10T09:02:01.148Z,4.75
2022-09-10T09:04:42.849Z,5.05
2022-09-10T09:07:15.516Z,4.95
2022-09-10T09:09:42.074Z,4.90
2022-09-10T09:12:36.341Z,4.50
2022-09-10T09:15:11.549Z,4.50
2022-09-10T09:18:01.515Z,4.40
2022-09-10T09:20:50.079Z,4.07
2022-09-10T09:24:02.785Z,3.75
2022-09-10T09:26:36.173Z,3.58
2022-09-10T09:29:12.819Z,3.58
2022-09-10T09:31:46.518Z,3.60
2022-09-10T09:34:27.903Z,3.63
2022-09-10T09:36:56.464Z,3.10
2022-09-10T09:39:41.849Z,3.08
2022-09-10T09:42:29.033Z,3.08
2022-09-10T09:45:02.492Z,3.50
2022-09-10T09:47:29.080Z,2.47
2022-09-10T09:49:56.161Z,2.42
2022-09-10T09:52:26.479Z,2.15
2022-09-10T09:55:15.704Z,2.67
2022-09-10T09:57:43.062Z,2.25
2022-09-10T10:00:32.864Z,2.80
2022-09-10T10:03:07.189Z,2.90
2022-09-10T10:05:33.836Z,2.78
2022-09-10T10:08:00.405Z,3.00
2022-09-10T10:10:28.262Z,2.70
2022-09-10T10:12:55.339Z,3.10
2022-09-10T10:15:44.388Z,3.38
2022-09-10T10:18:22.986Z,3.22
2022-09-10T10:21:11.575Z,3.25
2022-09-10T10:23:38.989Z,3.90
2022-09-10T10:26:20.924Z,3.13
2022-09-10T10:28:48.935Z,2.95
2022-09-10T10:31:17.371Z,3.30
2022-09-10T10:34:23.438Z,3.03
2022-09-10T10:37:22.985Z,3.17
2022-09-10T10:40:08.434Z,2.63
2022-09-10T10:42:46.215Z,2.90
2022-09-10T10:45:31.712Z,3.25
2022-09-10T10:48:12.400Z,3.70
2022-09-10T10:51:05.076Z,3.03
2022-09-10T10:53:50.187Z,3.30
2022-09-10T10:56:26.099Z,3.42
2022-09-10T10:58:54.529Z,3.80
2022-09-10T11:01:24.661Z,3.47
2022-09-10T11:04:15.937Z,3.88
2022-09-10T11:06:51.689Z,3.72
2022-09-10T11:09:34.574Z,3.55
2022-09-10T11:12:12.060Z,3.17
2022-09-10T11:14:54.065Z,4.00
2022-09-10T11:17:29.402Z,4.00
2022-09-10T11:20:27.891Z,3.42
2022-09-10T11:23:15.014Z,3.90
2022-09-10T11:26:00.544Z,4.13
2022-09-10T11:28:39.475Z,4.13
2022-09-10T11:31:17.349Z,4.43
2022-09-10T11:34:13.922Z,4.68
2022-09-10T11:36:50.680Z,4.22
2022-09-10T11:39:49.381Z,4.68
2022-09-10T11:42:27.384Z,4.35
2022-09-10T11:45:02.982Z,4.45
2022-09-10T11:47:35.561Z,4.32
2022-09-10T11:50:17.284Z,4.43
2022-09-10T11:52:43.888Z,4.65
2022-09-10T11:55:15.724Z,3.97
2022-09-10T11:57:48.413Z,4.10
2022-09-10T12:00:19.507Z,3.95
2022-09-10T12:03:10.740Z,3.95
2022-09-10T12:05:51.658Z,3.38
2022-09-10T12:08:43.844Z,3.30
2022-09-10T12:11:22.298Z,3.22
2022-09-10T12:13:52.657Z,3.13
2022-09-10T12:16:37.465Z,2.83
2022-09-10T12:19:19.014Z,3.20
2022-09-10T12:21:52.811Z,3.35
2022-09-10T12:24:26.721Z,3.30
2022-09-10T12:26:54.718Z,3.83
2022-09-10T12:29:40.191Z,3.45
2022-09-10T12:32:13.664Z,3.63
2022-09-10T12:34:41.070Z,3.80
2022-09-10T12:37:21.337Z,3.50
2022-09-10T12:39:49.105Z,3.90
2022-09-10T12:42:31.999Z,3.80
2022-09-10T12:44:59.331Z,3.67
2022-09-10T12:47:43.256Z,3.58
2022-09-10T12:50:51.664Z,3.83
2022-09-10T12:53:31.385Z,3.60
2022-09-10T12:56:02.198Z,2.97
2022-09-10T12:58:46.690Z,2.50
2022-09-10T13:01:28.911Z,2.63
2022-09-10T13:03:58.862Z,2.92
2022-09-10T13:06:40.837Z,2.75
2022-09-10T13:09:21.008Z,2.30
2022-09-10T13:11:54.107Z,2.10
2022-09-10T13:14:28.986Z,1.85
2022-09-10T13:16:55.557Z,1.92
2022-09-10T13:19:22.046Z,2.20
2022-09-10T13:21:48.567Z,2.78
2022-09-10T13:24:34.252Z,2.00
2022-09-10T13:27:12.754Z,1.88
2022-09-10T13:30:22.135Z,2.00
2022-09-10T13:32:58.996Z,1.45
2022-09-10T13:35:41.336Z,1.63
2022-09-10T13:38:13.740Z,2.65
2022-09-10T13:43:44.589Z,2.47
2022-09-10T13:46:23.657Z,2.40
2022-09-10T13:49:00.165Z,2.60
2022-09-10T13:51:46.171Z,1.90
2022-09-10T13:54:29.518Z,1.60
2022-09-10T13:56:59.783Z,1.88
2022-09-10T13:59:31.145Z,1.60
2022-09-10T14:01:59.510Z,1.55
2022-09-10T14:04:35.614Z,1.80
2022-09-10T14:07:14.306Z,2.00
2022-09-10T14:09:47.079Z,1.83
2022-09-10T14:12:14.822Z,1.90
2022-09-10T14:14:46.967Z,1.80
2022-09-10T14:17:19.703Z,1.50
2022-09-10T14:22:22.382Z,1.25
2022-09-10T14:25:02.624Z,1.50
2022-09-10T14:27:31.203Z,1.33
2022-09-10T14:30:18.340Z,1.50
2022-09-10T14:32:46.293Z,1.30
2022-09-10T14:35:39.478Z,1.30
2022-09-10T14:41:04.296Z,1.60
2022-09-10T14:43:39.082Z,1.65
2022-09-10T14:46:10.588Z,1.60
2022-09-10T14:48:41.050Z,1.45
2022-09-10T14:51:19.359Z,2.10
2022-09-10T14:53:50.844Z,1.85
2022-09-10T14:56:22.959Z,2.15
2022-09-10T14:58:58.353Z,1.98
2022-09-10T15:01:25.751Z,2.30
2022-09-10T15:03:52.533Z,2.10
2022-09-10T15:06:21.943Z,2.08
2022-09-10T15:08:51.207Z,2.20
2022-09-10T15:11:21.067Z,2.10
2022-09-10T15:13:48.431Z,2.33
2022-09-10T15:16:15.117Z,1.70
2022-09-10T15:18:41.698Z,1.60
2022-09-10T15:21:13.218Z,1.75
2022-09-10T15:23:39.930Z,1.58
2022-09-10T15:26:07.142Z,1.45
2022-09-10T15:28:33.686Z,1.73
2022-09-10T15:31:01.424Z,1.73
2022-09-10T15:33:28.631Z,1.48
2022-09-10T15:35:55.099Z,1.50
2022-09-10T15:38:21.906Z,1.67
2022-09-10T15:40:50.161Z,1.77
2022-09-10T15:43:19.256Z,2.30
2022-09-10T15:45:47.508Z,1.83
2022-09-10T15:48:14.193Z,1.80
2022-09-10T15:50:41.847Z,1.95
2022-09-10T15:53:11.686Z,1.70
2022-09-10T15:55:38.904Z,1.80
2022-09-10T15:58:05.594Z,2.00
2022-09-10T16:00:34.416Z,2.38
2022-09-10T16:03:01.884Z,2.53
2022-09-10T16:05:28.747Z,2.78
2022-09-10T16:07:55.255Z,2.67
2022-09-10T16:10:21.795Z,2.10
2022-09-10T16:12:48.546Z,2.08
2022-09-10T16:15:15.516Z,2.05
2022-09-10T16:17:42.233Z,1.67
2022-09-10T16:20:09.865Z,2.08
2022-09-10T16:22:36.880Z,1.90
2022-09-10T16:25:08.216Z,1.83
2022-09-10T16:27:34.951Z,1.77
2022-09-10T16:30:01.510Z,1.65
2022-09-10T16:32:28.797Z,2.03
2022-09-10T16:34:55.784Z,2.13
2022-09-10T16:37:27.199Z,2.00
2022-09-10T16:39:53.790Z,1.48
2022-09-10T16:42:20.512Z,1.50
2022-09-10T16:44:46.993Z,1.35
2022-09-10T16:47:14.297Z,1.70
2022-09-10T16:49:41.341Z,1.50
2022-09-10T16:52:07.987Z,1.48
2022-09-10T16:54:34.550Z,1.77
2022-09-10T16:57:02.116Z,1.75
2022-09-10T16:59:31.465Z,1.55
2022-09-10T17:01:59.579Z,1.50
2022-09-10T17:04:29.153Z,1.70
2022-09-10T17:06:57.552Z,1.85
2022-09-10T17:09:24.986Z,1.70
2022-09-10T17:11:51.760Z,1.77
2022-09-10T17:14:18.241Z,2.00
2022-09-10T17:16:44.891Z,1.77
2022-09-10T17:19:17.654Z,1.92
2022-09-10T17:21:50.914Z,1.70
2022-09-10T17:24:18.804Z,1.73
2022-09-10T17:26:46.083Z,1.90
2022-09-10T17:29:14.858Z,2.28
2022-09-10T17:31:42.056Z,2.10
2022-09-10T17:34:12.875Z,1.90
2022-09-10T17:36:40.935Z,1.80
2022-09-10T17:39:07.574Z,2.00
2022-09-10T17:41:34.253Z,1.85
2022-09-10T17:44:01.308Z,1.70
2022-09-10T17:46:28.354Z,1.95
2022-09-10T17:48:55.173Z,1.77
2022-09-10T17:51:27.661Z,1.77
2022-09-10T17:53:55.352Z,1.95
2022-09-10T17:56:23.526Z,1.63
2022-09-10T17:58:51.697Z,1.95
2022-09-10T18:01:23.315Z,2.20
2022-09-10T18:03:50.859Z,1.95
2022-09-10T18:06:17.411Z,2.08
2022-09-10T18:08:44.459Z,2.33
2022-09-10T18:11:14.621Z,2.08
2022-09-10T18:13:41.219Z,2.05
2022-09-10T18:16:09.863Z,2.10
2022-09-10T18:18:38.116Z,2.03
2022-09-10T18:21:19.744Z,1.83
2022-09-10T18:23:54.143Z,2.10
2022-09-10T18:26:22.773Z,2.20
2022-09-10T18:29:03.960Z,2.30
2022-09-10T18:31:36.935Z,2.28
2022-09-10T18:36:31.502Z,2.13
2022-09-10T18:38:58.748Z,3.00
2022-09-10T18:41:27.655Z,2.63
2022-09-10T18:43:57.842Z,2.90
2022-09-10T18:46:26.101Z,3.28
2022-09-10T18:48:53.178Z,3.25
2022-09-10T18:51:22.727Z,3.05
2022-09-10T18:53:53.423Z,3.13
2022-09-10T18:56:25.769Z,3.53
2022-09-10T18:58:55.933Z,3.53
2022-09-10T19:01:24.223Z,3.72
2022-09-10T19:03:51.365Z,3.70
2022-09-10T19:06:21.434Z,3.72
2022-09-10T19:08:55.320Z,3.75
2022-09-10T19:11:24.492Z,3.85
2022-09-10T19:13:56.164Z,4.38
2022-09-10T19:16:25.522Z,4.05
2022-09-10T19:18:54.251Z,4.85
2022-09-10T19:21:22.100Z,4.25
2022-09-10T19:23:49.952Z,4.30
2022-09-10T19:26:18.376Z,5.20
2022-09-10T19:28:46.393Z,5.78
2022-09-10T19:31:15.891Z,5.47
2022-09-10T19:33:42.458Z,5.47
2022-09-10T19:36:13.854Z,5.82
2022-09-10T19:38:41.193Z,6.40
2022-09-10T19:41:12.267Z,5.88
2022-09-10T19:43:40.940Z,6.68
2022-09-10T19:46:12.870Z,6.50
2022-09-10T19:48:40.173Z,6.47
2022-09-10T19:51:10.465Z,7.00
2022-09-10T19:53:37.833Z,6.70
2022-09-10T19:56:10.284Z,7.00
2022-09-10T19:58:37.739Z,7.28
2022-09-10T20:01:12.307Z,7.82
2022-09-10T20:03:40.384Z,8.18
2022-09-10T20:06:08.681Z,6.90
2022-09-10T20:08:35.383Z,8.05
2022-09-10T20:11:06.004Z,8.45
2022-09-10T20:13:33.780Z,8.77
2022-09-10T20:16:02.684Z,8.93
2022-09-10T20:18:30.830Z,9.05
2022-09-10T20:21:08.349Z,9.48
2022-09-10T20:23:36.525Z,9.55
2022-09-10T20:26:18.395Z,9.32
2022-09-10T20:28:49.668Z,9.70
2022-09-10T20:31:16.578Z,10.10
2022-09-10T20:33:43.399Z,10.52
2022-09-10T20:36:15.657Z,10.85
2022-09-10T20:38:43.379Z,12.25
2022-09-10T20:41:15.909Z,12.65
2022-09-10T20:43:42.717Z,12.07
2022-09-10T20:46:15.039Z,10.85
2022-09-10T20:48:45.886Z,10.80
2022-09-10T20:51:15.179Z,12.38
2022-09-10T20:53:41.860Z,13.18
2022-09-10T20:56:11.798Z,12.35
2022-09-10T20:58:39.114Z,13.00
2022-09-10T21:01:11.338Z,12.13
2022-09-10T21:03:39.221Z,12.90
2022-09-10T21:06:05.942Z,11.57
2022-09-10T21:08:32.537Z,11.68
2022-09-10T21:11:05.020Z,11.98
2022-09-10T21:13:36.298Z,13.65
2022-09-10T21:16:10.473Z,12.88
2022-09-10T21:18:37.834Z,13.13
2022-09-10T21:21:12.804Z,13.50
2022-09-10T21:23:47.918Z,13.57
2022-09-10T21:26:17.310Z,14.18
2022-09-10T21:28:47.721Z,13.82
2022-09-10T21:31:14.718Z,14.68
2022-09-10T21:33:42.664Z,13.73
2022-09-10T21:36:14.947Z,14.68
2022-09-10T21:38:42.104Z,13.90
2022-09-10T21:41:13.441Z,13.95
2022-09-10T21:43:46.404Z,14.70
2022-09-10T21:48:42.493Z,14.75
2022-09-10T21:51:13.357Z,15.90
2022-09-10T21:53:41.621Z,15.77
2022-09-10T21:56:10.057Z,14.68
2022-09-10T21:58:37.158Z,14.02
2022-09-10T22:01:09.781Z,14.63
2022-09-10T22:03:36.249Z,13.70
2022-09-10T22:06:22.995Z,15.13
2022-09-10T22:08:52.347Z,15.82
2022-09-10T22:11:24.477Z,16.35
2022-09-10T22:13:53.342Z,13.70
2022-09-10T22:16:21.132Z,15.18
2022-09-10T22:18:47.964Z,13.95
2022-09-10T22:21:15.679Z,14.93
2022-09-10T22:23:42.280Z,15.80
2022-09-10T22:26:16.387Z,14.23
2022-09-10T22:28:43.640Z,15.68
2022-09-10T22:31:19.587Z,15.00
2022-09-10T22:33:51.783Z,16.00
2022-09-10T22:36:28.751Z,16.27
2022-09-10T22:38:59.358Z,16.20
2022-09-10T22:41:27.196Z,15.63
2022-09-10T22:43:54.239Z,16.60
2022-09-10T22:46:21.286Z,15.57
2022-09-10T22:48:47.843Z,15.90
2022-09-10T22:51:20.178Z,16.50
2022-09-10T22:53:47.065Z,14.70
2022-09-10T22:56:14.811Z,16.20
2022-09-10T22:58:41.404Z,17.08
2022-09-10T23:01:16.366Z,15.93
2022-09-10T23:03:44.360Z,16.02
2022-09-10T23:06:15.068Z,15.50
2022-09-10T23:08:44.096Z,15.70
2022-09-10T23:11:21.557Z,16.65
2022-09-10T23:13:52.451Z,16.33
2022-09-10T23:16:40.483Z,15.43
2022-09-10T23:19:11.526Z,15.15
2022-09-10T23:21:45.068Z,16.67
2022-09-10T23:24:14.254Z,15.40
2022-09-10T23:26:41.679Z,16.48
2022-09-10T23:29:08.842Z,16.05
2022-09-10T23:31:37.862Z,17.05
2022-09-10T23:34:11.614Z,14.57
2022-09-10T23:36:40.519Z,15.88
2022-09-10T23:39:11.412Z,16.52
2022-09-10T23:41:39.203Z,16.88
2022-09-10T23:44:05.951Z,16.98
2022-09-10T23:46:32.692Z,17.30
2022-09-10T23:48:59.264Z,16.95
2022-09-10T23:51:26.146Z,15.90
2022-09-10T23:53:54.654Z,15.75
2022-09-10T23:56:23.324Z,16.30
2022-09-10T23:58:49.841Z,16.65
